createdAt,value
2022-12-15T00:00:14.861Z,37.20
2022-12-15T00:03:26.276Z,36.50
2022-12-15T00:06:13.548Z,36.30
2022-12-15T00:09:00.447Z,35.30
2022-12-15T00:11:47.607Z,34.70
2022-12-15T00:14:35.042Z,36.20
2022-12-15T00:17:22.108Z,35.00
2022-12-15T00:20:09.173Z,34.10
2022-12-15T00:22:56.335Z,34.00
2022-12-15T00:25:43.089Z,33.90
2022-12-15T00:28:30.100Z,33.40
2022-12-15T00:31:18.450Z,32.30
2022-12-15T00:34:05.667Z,33.50
2022-12-15T00:36:52.473Z,32.90
2022-12-15T00:39:21.198Z,33.10
2022-12-15T00:41:49.539Z,33.20
2022-12-15T00:44:20.740Z,33.50
2022-12-15T00:46:55.449Z,33.40
2022-12-15T00:49:45.528Z,32.00
2022-12-15T00:52:34.487Z,33.70
2022-12-15T00:55:23.419Z,33.40
2022-12-15T00:58:12.309Z,32.60
2022-12-15T01:00:59.733Z,31.70
2022-12-15T01:03:47.244Z,32.90
2022-12-15T01:06:38.123Z,30.90
2022-12-15T01:09:33.299Z,33.90
2022-12-15T01:12:20.134Z,31.00
2022-12-15T01:15:07.425Z,32.00
2022-12-15T01:17:54.428Z,32.30
2022-12-15T01:20:23.007Z,33.10
2022-12-15T01:22:55.999Z,30.80
2022-12-15T01:25:25.727Z,28.90
2022-12-15T01:27:54.001Z,31.20
2022-12-15T01:30:25.670Z,33.80
2022-12-15T01:32:54.358Z,33.30
2022-12-15T01:35:22.975Z,30.40
2022-12-15T01:37:51.528Z,32.10
2022-12-15T01:40:40.274Z,32.10
2022-12-15T01:43:24.725Z,32.60
2022-12-15T01:46:06.274Z,32.30
2022-12-15T01:48:38.307Z,32.30
2022-12-15T01:51:16.185Z,31.40
2022-12-15T01:53:53.997Z,31.30
2022-12-15T01:56:24.021Z,31.50
2022-12-15T01:58:55.404Z,30.80
2022-12-15T02:01:24.019Z,33.30
2022-12-15T02:03:52.467Z,31.50
2022-12-15T02:06:22.476Z,32.60
2022-12-15T02:08:54.880Z,34.50
2022-12-15T02:14:05.787Z,32.80
2022-12-15T02:17:02.153Z,34.90
2022-12-15T02:19:36.672Z,33.70
2022-12-15T02:22:22.336Z,30.00
2022-12-15T02:25:12.449Z,29.20
2022-12-15T02:28:04.170Z,27.50
2022-12-15T02:30:38.568Z,25.80
2022-12-15T02:33:08.923Z,28.30
2022-12-15T02:36:08.818Z,30.70
2022-12-15T02:38:39.372Z,30.80
2022-12-15T02:41:35.872Z,29.40
2022-12-15T02:44:20.851Z,30.70
2022-12-15T02:46:55.987Z,30.60
2022-12-15T02:50:01.353Z,33.30
2022-12-15T02:52:55.635Z,32.80
2022-12-15T02:56:00.799Z,31.30
2022-12-15T02:58:45.124Z,31.40
2022-12-15T03:01:33.676Z,30.80
2022-12-15T03:04:04.636Z,30.10
2022-12-15T03:06:32.962Z,34.80
2022-12-15T03:09:01.404Z,37.30
2022-12-15T03:11:30.699Z,36.30
2022-12-15T03:13:59.162Z,34.80
2022-12-15T03:16:27.561Z,38.20
2022-12-15T03:18:56.014Z,38.30
2022-12-15T03:21:24.199Z,39.80
2022-12-15T03:23:52.581Z,41.10
2022-12-15T03:26:21.222Z,39.40
2022-12-15T03:28:49.472Z,38.50
2022-12-15T03:31:17.917Z,41.10
2022-12-15T03:33:46.866Z,39.90
2022-12-15T03:36:15.117Z,40.70
2022-12-15T03:38:43.414Z,43.40
2022-12-15T03:41:12.194Z,44.00
2022-12-15T03:43:40.423Z,41.40
2022-12-15T03:46:08.786Z,41.00
2022-12-15T03:48:37.957Z,42.90
2022-12-15T03:51:06.564Z,42.50
2022-12-15T03:53:34.911Z,40.40
2022-12-15T03:56:03.413Z,37.70
2022-12-15T03:58:31.692Z,43.50
2022-12-15T04:01:09.278Z,40.30
2022-12-15T04:03:38.069Z,43.30
2022-12-15T04:06:06.581Z,41.00
2022-12-15T04:08:34.872Z,42.40
2022-12-15T04:11:03.184Z,39.20
2022-12-15T04:13:31.733Z,41.30
2022-12-15T04:16:02.928Z,38.00
2022-12-15T04:18:31.343Z,40.40
2022-12-15T04:20:59.563Z,37.50
2022-12-15T04:23:28.384Z,39.60
2022-12-15T04:26:15.507Z,40.40
2022-12-15T04:29:02.464Z,38.60
2022-12-15T04:31:52.319Z,36.40
2022-12-15T04:34:42.284Z,36.10
2022-12-15T04:37:32.641Z,36.40
2022-12-15T04:40:19.678Z,35.50
2022-12-15T04:43:07.295Z,34.00
2022-12-15T04:45:54.319Z,34.90
2022-12-15T04:48:41.347Z,32.70
2022-12-15T04:51:28.069Z,34.70
2022-12-15T04:54:15.168Z,36.90
2022-12-15T04:57:02.081Z,37.30
2022-12-15T04:59:49.159Z,32.80
2022-12-15T05:02:36.404Z,34.00
2022-12-15T05:05:23.887Z,35.30
2022-12-15T05:08:10.844Z,32.40
2022-12-15T05:10:57.918Z,32.30
2022-12-15T05:13:44.748Z,30.50
2022-12-15T05:16:31.708Z,32.20
2022-12-15T05:19:18.526Z,33.20
2022-12-15T05:22:05.549Z,34.20
2022-12-15T05:24:52.739Z,36.20
2022-12-15T05:27:39.924Z,38.40
2022-12-15T05:30:27.916Z,36.70
2022-12-15T05:32:56.240Z,31.70
2022-12-15T05:35:24.870Z,34.60
2022-12-15T05:37:53.727Z,36.40
2022-12-15T05:40:22.021Z,38.10
2022-12-15T05:42:50.495Z,35.90
2022-12-15T05:45:18.696Z,36.30
2022-12-15T05:47:51.631Z,38.70
2022-12-15T05:50:21.097Z,37.00
2022-12-15T05:52:49.939Z,36.40
2022-12-15T05:55:19.043Z,36.60
2022-12-15T05:57:54.417Z,36.80
2022-12-15T06:00:23.133Z,38.80
2022-12-15T06:02:51.414Z,36.70
2022-12-15T06:05:19.677Z,39.70
2022-12-15T06:07:47.929Z,38.30
2022-12-15T06:10:16.235Z,38.10
2022-12-15T06:12:44.455Z,39.90
2022-12-15T06:15:13.022Z,39.70
2022-12-15T06:17:41.253Z,41.00
2022-12-15T06:20:09.976Z,37.80
2022-12-15T06:22:38.976Z,40.30
2022-12-15T06:25:07.655Z,41.40
2022-12-15T06:27:37.850Z,41.50
2022-12-15T06:30:06.529Z,41.80
2022-12-15T06:32:36.389Z,37.60
2022-12-15T06:35:05.044Z,40.80
2022-12-15T06:37:33.308Z,41.70
2022-12-15T06:40:02.242Z,42.00
2022-12-15T06:42:30.595Z,38.60
2022-12-15T06:44:58.944Z,39.90
2022-12-15T06:47:27.203Z,37.70
2022-12-15T06:49:56.056Z,39.90
2022-12-15T06:52:24.243Z,38.40
2022-12-15T06:54:52.537Z,37.00
2022-12-15T06:57:20.997Z,38.80
2022-12-15T06:59:49.221Z,37.50
2022-12-15T07:02:22.341Z,36.90
2022-12-15T07:04:53.647Z,38.80
2022-12-15T07:07:21.979Z,39.00
2022-12-15T07:09:50.271Z,40.90
2022-12-15T07:12:18.837Z,39.90
2022-12-15T07:14:53.053Z,38.00
2022-12-15T07:17:22.183Z,39.90
2022-12-15T07:19:50.678Z,35.00
2022-12-15T07:22:20.433Z,38.40
2022-12-15T07:24:48.775Z,38.20
2022-12-15T07:27:18.234Z,40.10
2022-12-15T07:29:46.470Z,42.10
2022-12-15T07:32:15.904Z,43.90
2022-12-15T07:34:44.705Z,42.70
2022-12-15T07:37:13.366Z,43.80
2022-12-15T07:39:41.984Z,44.20
2022-12-15T07:42:10.381Z,46.70
2022-12-15T07:44:38.838Z,45.70
2022-12-15T07:47:07.266Z,47.30
2022-12-15T07:49:35.476Z,47.60
2022-12-15T07:52:04.439Z,46.60
2022-12-15T07:54:32.863Z,46.40
2022-12-15T07:57:02.791Z,46.90
2022-12-15T07:59:31.039Z,47.30
2022-12-15T08:02:00.800Z,47.50
2022-12-15T08:04:29.157Z,46.50
2022-12-15T08:06:58.599Z,45.80
2022-12-15T08:09:26.877Z,42.40
2022-12-15T08:11:55.194Z,39.40
2022-12-15T08:14:24.281Z,39.90
2022-12-15T08:16:53.641Z,36.90
2022-12-15T08:19:21.939Z,37.30
2022-12-15T08:21:50.856Z,35.70
2022-12-15T08:24:19.552Z,35.70
2022-12-15T08:26:50.503Z,37.60
2022-12-15T08:32:07.741Z,38.10
2022-12-15T08:34:36.285Z,40.00
2022-12-15T08:37:04.521Z,42.70
2022-12-15T08:39:32.781Z,46.70
2022-12-15T08:42:01.081Z,51.00
2022-12-15T08:44:29.324Z,53.00
2022-12-15T08:46:57.560Z,54.10
2022-12-15T08:49:25.927Z,51.30
2022-12-15T08:51:54.200Z,49.60
2022-12-15T08:54:22.607Z,46.10
2022-12-15T08:56:50.976Z,47.20
2022-12-15T08:59:19.549Z,43.20
2022-12-15T09:01:48.473Z,44.70
2022-12-15T09:04:17.316Z,41.00
2022-12-15T09:06:46.767Z,41.40
2022-12-15T09:09:19.818Z,39.90
2022-12-15T09:11:49.313Z,39.70
2022-12-15T09:14:18.965Z,38.90
2022-12-15T09:16:50.729Z,36.80
2022-12-15T09:19:19.318Z,37.10
2022-12-15T09:21:48.414Z,34.80
2022-12-15T09:24:25.841Z,34.10
2022-12-15T09:27:01.238Z,39.50
2022-12-15T09:29:29.570Z,40.20
2022-12-15T09:31:57.968Z,46.40
2022-12-15T09:34:26.469Z,49.40
2022-12-15T09:36:54.757Z,51.10
2022-12-15T09:39:23.742Z,48.00
2022-12-15T09:41:55.505Z,51.80
2022-12-15T09:44:26.144Z,46.70
2022-12-15T09:47:17.708Z,44.40
2022-12-15T09:49:56.510Z,41.10
2022-12-15T09:52:27.921Z,38.10
2022-12-15T09:54:57.997Z,37.40
2022-12-15T09:57:43.016Z,39.20
2022-12-15T10:00:26.113Z,42.20
2022-12-15T10:03:28.299Z,40.50
2022-12-15T10:06:16.026Z,40.90
2022-12-15T10:09:02.102Z,39.40
2022-12-15T10:11:50.980Z,38.50
2022-12-15T10:14:42.346Z,40.00
2022-12-15T10:17:33.729Z,41.60
2022-12-15T10:20:17.471Z,44.00
2022-12-15T10:22:46.013Z,47.70
2022-12-15T10:29:08.242Z,42.10
2022-12-15T10:31:51.471Z,39.10
2022-12-15T10:34:29.755Z,38.80
2022-12-15T10:36:59.001Z,38.60
2022-12-15T10:39:41.435Z,40.70
2022-12-15T10:44:50.273Z,39.90
2022-12-15T10:47:26.228Z,41.30
2022-12-15T10:49:56.566Z,42.10
2022-12-15T10:52:43.029Z,41.10
2022-12-15T10:55:38.835Z,42.30
2022-12-15T10:58:23.266Z,42.90
2022-12-15T11:01:15.309Z,41.80
2022-12-15T11:03:44.239Z,38.40
2022-12-15T11:06:20.479Z,40.40
2022-12-15T11:08:52.680Z,42.40
2022-12-15T11:11:53.795Z,42.10
2022-12-15T11:14:28.436Z,43.50
2022-12-15T11:16:59.402Z,41.00
2022-12-15T11:20:00.033Z,40.70
2022-12-15T11:23:03.166Z,39.20
2022-12-15T11:25:51.259Z,37.20
2022-12-15T11:28:38.901Z,36.70
2022-12-15T11:31:18.015Z,33.80
2022-12-15T11:33:46.413Z,33.80
2022-12-15T11:36:25.780Z,34.10
2022-12-15T11:39:03.048Z,32.50
2022-12-15T11:41:54.043Z,31.80
2022-12-15T11:44:32.634Z,32.50
2022-12-15T11:47:19.621Z,32.80
2022-12-15T11:50:29.704Z,31.90
2022-12-15T11:53:23.693Z,32.10
2022-12-15T11:56:19.265Z,34.10
2022-12-15T11:59:16.245Z,32.30
2022-12-15T12:02:02.943Z,32.70
2022-12-15T12:07:43.924Z,31.90
2022-12-15T12:10:46.415Z,31.00
2022-12-15T12:13:46.645Z,29.90
2022-12-15T12:16:29.263Z,29.90
2022-12-15T12:19:03.064Z,28.40
2022-12-15T12:21:47.051Z,28.10
2022-12-15T12:24:30.441Z,26.70
2022-12-15T12:27:09.850Z,27.00
2022-12-15T12:29:44.798Z,28.30
2022-12-15T12:32:40.467Z,26.70
2022-12-15T12:35:56.678Z,27.90
2022-12-15T12:38:31.437Z,25.20
2022-12-15T12:41:27.402Z,24.60
2022-12-15T12:44:00.901Z,25.60
2022-12-15T12:46:34.425Z,24.10
2022-12-15T12:49:13.461Z,25.30
2022-12-15T12:51:49.375Z,23.80
2022-12-15T12:54:36.090Z,23.50
2022-12-15T12:57:13.449Z,23.30
2022-12-15T12:59:56.276Z,23.80
2022-12-15T13:02:24.949Z,24.40
2022-12-15T13:05:00.609Z,23.60
2022-12-15T13:07:31.162Z,23.90
2022-12-15T13:10:08.641Z,25.20
2022-12-15T13:12:54.753Z,25.10
2022-12-15T13:15:29.457Z,26.80
2022-12-15T13:18:07.175Z,26.90
2022-12-15T13:20:37.738Z,26.10
2022-12-15T13:23:21.510Z,28.50
2022-12-15T13:25:55.885Z,28.90
2022-12-15T13:28:36.128Z,30.50
2022-12-15T13:31:17.141Z,29.90
2022-12-15T13:33:52.363Z,30.60
2022-12-15T13:36:39.565Z,32.80
2022-12-15T13:39:17.168Z,29.40
2022-12-15T13:44:52.725Z,31.70
2022-12-15T13:47:28.007Z,32.40
2022-12-15T13:50:27.148Z,30.70
2022-12-15T13:53:18.383Z,30.70
2022-12-15T13:56:17.493Z,32.00
2022-12-15T13:58:57.841Z,30.30
2022-12-15T14:01:32.758Z,31.20
2022-12-15T14:04:15.867Z,30.40
2022-12-15T14:09:42.202Z,30.30
2022-12-15T14:12:13.824Z,29.20
2022-12-15T14:14:49.616Z,29.40
2022-12-15T14:17:19.841Z,29.30
2022-12-15T14:19:51.006Z,28.30
2022-12-15T14:22:30.619Z,28.90
2022-12-15T14:25:03.594Z,30.30
2022-12-15T14:27:33.938Z,29.60
2022-12-15T14:30:17.615Z,29.60
2022-12-15T14:32:49.329Z,29.10
2022-12-15T14:35:27.762Z,30.70
2022-12-15T14:37:58.377Z,30.90
2022-12-15T14:40:29.856Z,29.90
2022-12-15T14:42:58.563Z,33.10
2022-12-15T14:45:32.505Z,32.80
2022-12-15T14:48:39.473Z,32.20
2022-12-15T14:51:01.610Z,34.00
2022-12-15T14:53:37.462Z,35.20
2022-12-15T14:56:33.410Z,37.60
2022-12-15T14:59:20.875Z,35.70
2022-12-15T15:02:10.288Z,36.80
2022-12-15T15:03:06.627Z,44.40
2022-12-15T15:04:39.102Z,33.70
2022-12-15T15:07:17.476Z,38.70
2022-12-15T15:09:46.442Z,38.00
2022-12-15T15:12:20.633Z,42.70
2022-12-15T15:14:59.228Z,37.10
2022-12-15T15:17:39.185Z,37.40
2022-12-15T15:20:22.392Z,43.50
2022-12-15T15:23:10.980Z,39.60
2022-12-15T15:25:42.726Z,43.10
2022-12-15T15:28:21.770Z,44.40
2022-12-15T15:30:51.526Z,44.90
2022-12-15T15:33:26.247Z,45.00
2022-12-15T15:36:00.017Z,50.20
2022-12-15T15:38:37.961Z,41.80
2022-12-15T15:41:19.994Z,49.60
2022-12-15T15:43:49.583Z,47.40
2022-12-15T15:46:25.579Z,43.00
2022-12-15T15:48:57.688Z,48.00
2022-12-15T15:51:27.450Z,43.00
2022-12-15T15:54:01.288Z,46.30
2022-12-15T15:56:31.270Z,45.70
2022-12-15T15:59:09.488Z,47.30
2022-12-15T16:01:37.848Z,46.50
2022-12-15T16:04:06.914Z,45.30
2022-12-15T16:06:35.930Z,45.60
2022-12-15T16:09:07.143Z,42.50
2022-12-15T16:11:36.594Z,46.40
2022-12-15T16:14:11.276Z,46.40
2022-12-15T16:16:41.923Z,44.20
2022-12-15T16:19:12.205Z,43.70
2022-12-15T16:21:43.054Z,45.30
2022-12-15T16:24:17.713Z,49.00
2022-12-15T16:26:49.725Z,47.90
2022-12-15T16:29:20.528Z,47.70
2022-12-15T16:31:49.223Z,51.00
2022-12-15T16:34:19.307Z,49.90
2022-12-15T16:36:47.888Z,48.30
2022-12-15T16:39:31.278Z,50.50
2022-12-15T16:41:59.711Z,48.80
2022-12-15T16:44:29.563Z,49.90
2022-12-15T16:46:59.121Z,47.30
2022-12-15T16:49:33.911Z,49.60
2022-12-15T16:52:15.172Z,48.50
2022-12-15T16:54:46.805Z,46.80
2022-12-15T16:57:15.530Z,47.70
2022-12-15T16:59:43.796Z,48.60
2022-12-15T17:02:28.645Z,52.70
2022-12-15T17:04:57.515Z,41.30
2022-12-15T17:07:27.859Z,48.70
2022-12-15T17:09:56.941Z,48.10
2022-12-15T17:12:25.360Z,48.50
2022-12-15T17:14:53.657Z,43.50
2022-12-15T17:17:22.020Z,48.90
2022-12-15T17:20:27.945Z,45.90
2022-12-15T17:22:40.418Z,47.20
2022-12-15T17:25:32.062Z,42.90
2022-12-15T17:28:21.040Z,44.60
2022-12-15T17:30:51.707Z,49.20
2022-12-15T17:33:22.673Z,46.00
2022-12-15T17:36:01.544Z,47.00
2022-12-15T17:38:30.132Z,47.00
2022-12-15T17:40:58.448Z,48.00
2022-12-15T17:43:32.058Z,48.50
2022-12-15T17:46:04.154Z,44.00
2022-12-15T17:48:33.042Z,44.50
2022-12-15T17:51:01.316Z,48.80
2022-12-15T17:53:31.000Z,48.10
2022-12-15T17:55:59.511Z,48.00
2022-12-15T17:58:27.811Z,51.00
2022-12-15T18:00:56.534Z,44.70
2022-12-15T18:03:25.085Z,48.70
2022-12-15T18:05:53.845Z,48.90
2022-12-15T18:08:25.651Z,44.00
2022-12-15T18:10:58.095Z,43.70
2022-12-15T18:13:34.884Z,49.10
2022-12-15T18:16:04.053Z,49.90
2022-12-15T18:18:32.673Z,47.70
2022-12-15T18:21:08.142Z,47.70
2022-12-15T18:23:37.370Z,48.00
2022-12-15T18:26:05.930Z,47.00
2022-12-15T18:28:35.706Z,46.30
2022-12-15T18:31:14.986Z,46.40
2022-12-15T18:33:44.611Z,46.60
2022-12-15T18:36:13.719Z,43.30
2022-12-15T18:38:42.577Z,44.00
2022-12-15T18:41:17.332Z,43.10
2022-12-15T18:43:47.813Z,44.60
2022-12-15T18:46:18.907Z,45.10
2022-12-15T18:48:47.450Z,44.70
2022-12-15T18:51:18.917Z,45.30
2022-12-15T18:53:51.154Z,46.80
2022-12-15T18:58:50.088Z,44.40
2022-12-15T19:01:18.713Z,45.40
2022-12-15T19:03:47.361Z,45.30
2022-12-15T19:06:35.025Z,47.00
2022-12-15T19:09:06.377Z,47.50
2022-12-15T19:11:34.775Z,45.50
2022-12-15T19:14:24.998Z,44.20
2022-12-15T19:17:12.610Z,44.60
2022-12-15T19:19:59.506Z,44.50
2022-12-15T19:22:29.679Z,42.60
2022-12-15T19:24:59.168Z,42.40
2022-12-15T19:27:27.650Z,43.20
2022-12-15T19:29:55.997Z,43.60
2022-12-15T19:32:24.444Z,44.70
2022-12-15T19:34:52.698Z,45.20
2022-12-15T19:37:30.212Z,44.30
2022-12-15T19:40:01.096Z,42.60
2022-12-15T19:43:39.589Z,40.50
2022-12-15T19:46:17.382Z,38.60
2022-12-15T19:48:46.362Z,42.60
2022-12-15T19:51:21.159Z,40.60
2022-12-15T19:53:49.891Z,41.80
2022-12-15T19:56:21.991Z,40.50
2022-12-15T19:58:50.546Z,39.90
2022-12-15T20:01:21.344Z,37.30
2022-12-15T20:03:52.892Z,41.20
2022-12-15T20:06:24.725Z,41.50
2022-12-15T20:08:55.969Z,43.60
2022-12-15T20:11:30.340Z,43.60
2022-12-15T20:13:59.060Z,41.90
2022-12-15T20:16:27.431Z,49.10
2022-12-15T20:18:56.250Z,44.10
2022-12-15T20:21:31.590Z,40.30
2022-12-15T20:24:15.140Z,45.40
2022-12-15T20:26:45.776Z,43.00
2022-12-15T20:29:28.368Z,42.90
2022-12-15T20:34:26.264Z,40.50
2022-12-15T20:36:54.512Z,34.50
2022-12-15T20:39:26.955Z,38.10
2022-12-15T20:41:56.568Z,39.90
2022-12-15T20:44:24.891Z,40.90
2022-12-15T20:46:53.679Z,41.10
2022-12-15T20:49:22.784Z,36.60
2022-12-15T20:51:51.872Z,38.30
2022-12-15T20:54:22.529Z,40.40
2022-12-15T20:56:51.028Z,40.20
2022-12-15T20:59:19.509Z,36.70
2022-12-15T21:01:48.209Z,41.60
2022-12-15T21:04:25.032Z,37.40
2022-12-15T21:06:55.178Z,38.80
2022-12-15T21:09:24.636Z,37.70
2022-12-15T21:11:55.144Z,38.20
2022-12-15T21:14:24.658Z,36.50
2022-12-15T21:16:53.028Z,36.40
2022-12-15T21:19:22.568Z,38.10
2022-12-15T21:21:54.780Z,36.30
2022-12-15T21:24:27.047Z,37.10
2022-12-15T21:26:56.228Z,36.40
2022-12-15T21:29:28.764Z,36.50
2022-12-15T21:31:57.537Z,35.30
2022-12-15T21:34:25.872Z,36.30
2022-12-15T21:36:54.994Z,37.80
2022-12-15T21:39:31.090Z,36.60
2022-12-15T21:42:01.893Z,38.20
2022-12-15T21:44:30.299Z,34.00
2022-12-15T21:46:58.606Z,37.10
2022-12-15T21:49:27.265Z,36.80
2022-12-15T21:52:01.139Z,31.50
2022-12-15T21:54:35.187Z,35.40
2022-12-15T21:57:03.881Z,35.60
2022-12-15T21:59:32.986Z,32.90
2022-12-15T22:02:01.841Z,36.20
2022-12-15T22:04:33.603Z,35.30
2022-12-15T22:07:02.424Z,33.60
2022-12-15T22:09:30.666Z,32.10
2022-12-15T22:11:59.343Z,30.90
2022-12-15T22:14:33.871Z,32.30
2022-12-15T22:17:14.448Z,31.00
2022-12-15T22:19:42.750Z,30.20
2022-12-15T22:22:12.391Z,30.10
2022-12-15T22:24:41.000Z,30.80
2022-12-15T22:27:21.243Z,33.00
2022-12-15T22:29:50.484Z,31.10
2022-12-15T22:32:18.728Z,33.10
2022-12-15T22:34:47.157Z,31.90
2022-12-15T22:37:15.871Z,30.30
2022-12-15T22:39:44.192Z,29.70
2022-12-15T22:42:16.757Z,29.40
2022-12-15T22:44:45.850Z,29.90
2022-12-15T22:47:14.164Z,31.40
2022-12-15T22:49:42.699Z,29.50
2022-12-15T22:52:19.783Z,30.80
2022-12-15T22:54:48.598Z,31.10
2022-12-15T22:57:21.603Z,31.20
2022-12-15T23:00:05.764Z,31.60
2022-12-15T23:02:40.825Z,29.50
2022-12-15T23:05:12.058Z,30.70
2022-12-15T23:07:41.509Z,30.90
2022-12-15T23:10:31.207Z,31.00
2022-12-15T23:12:59.676Z,31.10
2022-12-15T23:15:47.726Z,29.70
2022-12-15T23:18:16.388Z,29.80
2022-12-15T23:20:44.602Z,31.00
2022-12-15T23:23:12.825Z,29.70
2022-12-15T23:25:41.234Z,30.90
2022-12-15T23:28:09.717Z,30.70
2022-12-15T23:30:38.112Z,31.00
2022-12-15T23:33:06.433Z,30.70
2022-12-15T23:35:35.772Z,32.00
2022-12-15T23:38:03.986Z,30.50
2022-12-15T23:40:32.313Z,32.00
2022-12-15T23:43:00.795Z,30.50
2022-12-15T23:45:29.267Z,32.00
2022-12-15T23:47:57.518Z,32.60
2022-12-15T23:50:25.737Z,30.50
2022-12-15T23:52:54.030Z,34.40
2022-12-15T23:55:23.114Z,33.80
2022-12-15T23:57:51.844Z,33.80
